createdAt,value
2023-02-28T00:02:04.700Z,29.70
2023-02-28T00:04:54.042Z,28.60
2023-02-28T00:07:41.246Z,26.90
2023-02-28T00:10:30.368Z,29.60
2023-02-28T00:13:17.652Z,26.70
2023-02-28T00:16:07.827Z,26.80
2023-02-28T00:18:54.040Z,27.30
2023-02-28T00:21:41.797Z,29.60
2023-02-28T00:24:29.607Z,27.90
2023-02-28T00:27:16.096Z,28.10
2023-02-28T00:30:02.813Z,27.90
2023-02-28T00:32:49.966Z,27.70
2023-02-28T00:35:36.513Z,27.70
2023-02-28T00:38:22.913Z,27.40
2023-02-28T00:41:10.246Z,26.60
2023-02-28T00:43:56.749Z,27.50
2023-02-28T00:46:43.517Z,27.80
2023-02-28T00:49:30.084Z,26.70
2023-02-28T00:52:16.788Z,30.30
2023-02-28T00:55:03.745Z,27.90
2023-02-28T00:57:50.289Z,26.50
2023-02-28T01:00:37.058Z,28.10
2023-02-28T01:03:24.114Z,29.00
2023-02-28T01:06:11.324Z,28.70
2023-02-28T01:08:57.691Z,29.50
2023-02-28T01:11:45.074Z,31.50
2023-02-28T01:14:31.565Z,32.50
2023-02-28T01:17:18.515Z,34.70
2023-02-28T01:20:08.158Z,35.50
2023-02-28T01:22:54.537Z,36.00
2023-02-28T01:25:41.395Z,34.70
2023-02-28T01:28:27.764Z,40.30
2023-02-28T01:31:15.264Z,42.40
2023-02-28T01:34:02.672Z,39.70
2023-02-28T01:36:49.330Z,37.40
2023-02-28T01:39:38.004Z,38.10
2023-02-28T01:42:24.728Z,38.10
2023-02-28T01:45:26.902Z,36.10
2023-02-28T01:48:13.830Z,36.60
2023-02-28T01:51:06.264Z,30.70
2023-02-28T01:53:57.590Z,32.10
2023-02-28T01:56:54.832Z,29.70
2023-02-28T01:59:51.447Z,31.00
2023-02-28T02:02:38.614Z,33.10
2023-02-28T02:05:28.106Z,33.00
2023-02-28T02:08:24.284Z,29.90
2023-02-28T02:11:19.646Z,37.10
2023-02-28T02:14:17.556Z,33.10
2023-02-28T02:17:19.659Z,30.00
2023-02-28T02:20:35.959Z,31.30
2023-02-28T02:23:46.638Z,30.80
2023-02-28T02:26:45.244Z,30.90
2023-02-28T02:30:00.253Z,32.20
2023-02-28T02:33:10.791Z,30.90
2023-02-28T02:36:09.166Z,29.70
2023-02-28T02:39:03.036Z,31.30
2023-02-28T02:41:55.215Z,34.80
2023-02-28T02:44:51.696Z,33.00
2023-02-28T02:47:39.403Z,32.80
2023-02-28T02:50:33.395Z,36.00
2023-02-28T02:53:25.308Z,39.30
2023-02-28T02:56:13.337Z,40.20
2023-02-28T02:59:10.480Z,45.40
2023-02-28T03:02:01.892Z,50.70
2023-02-28T03:05:01.672Z,60.50
2023-02-28T03:07:48.801Z,66.60
2023-02-28T03:10:41.340Z,146.70
2023-02-28T03:13:52.578Z,203.90
2023-02-28T03:16:53.731Z,270.10
2023-02-28T03:20:08.461Z,241.80
2023-02-28T03:23:11.856Z,287.50
2023-02-28T03:26:05.120Z,263.60
2023-02-28T03:29:14.037Z,218.30
2023-02-28T03:34:47.611Z,210.70
2023-02-28T03:37:39.254Z,215.20
2023-02-28T03:40:31.685Z,191.60
2023-02-28T03:43:26.599Z,173.60
2023-02-28T03:46:18.102Z,162.00
2023-02-28T03:49:16.644Z,136.50
2023-02-28T03:52:07.187Z,124.70
2023-02-28T03:54:57.400Z,109.00
2023-02-28T03:58:02.764Z,98.30
2023-02-28T04:01:00.243Z,81.10
2023-02-28T04:03:47.019Z,77.90
2023-02-28T04:06:35.038Z,70.80
2023-02-28T04:09:21.613Z,59.70
2023-02-28T04:12:08.641Z,61.30
2023-02-28T04:14:55.162Z,58.60
2023-02-28T04:17:41.908Z,59.00
2023-02-28T04:20:28.230Z,53.00
2023-02-28T04:23:15.108Z,54.10
2023-02-28T04:26:01.774Z,50.90
2023-02-28T04:28:48.381Z,51.60
2023-02-28T04:31:35.271Z,47.40
2023-02-28T04:34:22.678Z,47.30
2023-02-28T04:37:13.645Z,50.90
2023-02-28T04:40:00.488Z,43.20
2023-02-28T04:42:47.209Z,45.50
2023-02-28T04:45:35.062Z,43.80
2023-02-28T04:48:22.426Z,45.50
2023-02-28T04:51:11.318Z,40.30
2023-02-28T04:53:57.830Z,41.60
2023-02-28T04:56:44.537Z,42.70
2023-02-28T04:59:31.322Z,43.80
2023-02-28T05:02:18.148Z,43.90
2023-02-28T05:05:05.341Z,44.10
2023-02-28T05:07:51.785Z,38.60
2023-02-28T05:10:38.184Z,39.00
2023-02-28T05:13:25.083Z,34.80
2023-02-28T05:16:11.876Z,33.40
2023-02-28T05:19:00.462Z,37.10
2023-02-28T05:21:56.023Z,36.30
2023-02-28T05:24:43.320Z,36.70
2023-02-28T05:27:30.960Z,34.70
2023-02-28T05:30:17.893Z,36.90
2023-02-28T05:33:04.414Z,36.00
2023-02-28T05:35:51.235Z,35.30
2023-02-28T05:38:39.007Z,34.30
2023-02-28T05:41:27.424Z,36.70
2023-02-28T05:44:14.362Z,44.30
2023-02-28T05:47:00.987Z,37.70
2023-02-28T05:49:47.651Z,36.60
2023-02-28T05:52:34.700Z,37.90
2023-02-28T05:55:21.275Z,36.10
2023-02-28T05:58:07.836Z,38.90
2023-02-28T06:00:54.387Z,35.00
2023-02-28T06:03:41.040Z,33.40
2023-02-28T06:06:27.559Z,35.90
2023-02-28T06:09:14.789Z,32.30
2023-02-28T06:12:06.467Z,32.00
2023-02-28T06:14:53.146Z,31.70
2023-02-28T06:17:39.637Z,31.70
2023-02-28T06:20:30.197Z,34.20
2023-02-28T06:23:16.633Z,33.80
2023-02-28T06:26:03.541Z,33.50
2023-02-28T06:28:50.347Z,34.70
2023-02-28T06:31:37.257Z,35.20
2023-02-28T06:34:24.386Z,33.30
2023-02-28T06:37:10.865Z,35.90
2023-02-28T06:39:58.715Z,35.10
2023-02-28T06:42:45.416Z,34.60
2023-02-28T06:45:31.881Z,37.70
2023-02-28T06:48:18.999Z,32.60
2023-02-28T06:51:08.841Z,36.00
2023-02-28T06:53:55.206Z,34.90
2023-02-28T06:56:42.063Z,36.50
2023-02-28T06:59:28.904Z,37.70
2023-02-28T07:02:15.593Z,35.10
2023-02-28T07:05:02.556Z,29.80
2023-02-28T07:07:49.059Z,23.10
2023-02-28T07:10:40.163Z,26.80
2023-02-28T07:13:26.521Z,21.40
2023-02-28T07:16:14.891Z,20.50
2023-02-28T07:19:02.052Z,18.90
2023-02-28T07:21:48.829Z,17.50
2023-02-28T07:24:35.755Z,13.50
2023-02-28T07:27:26.664Z,13.80
2023-02-28T07:30:13.591Z,11.20
2023-02-28T07:34:35.268Z,9.70
2023-02-28T07:37:21.901Z,9.80
2023-02-28T07:40:12.495Z,10.80
2023-02-28T07:43:01.473Z,10.00
2023-02-28T07:45:48.193Z,10.90
2023-02-28T07:48:35.027Z,10.10
2023-02-28T07:51:21.897Z,8.30
2023-02-28T07:54:08.704Z,8.50
2023-02-28T07:56:54.911Z,8.80
2023-02-28T07:59:41.301Z,7.70
2023-02-28T08:02:27.955Z,8.90
2023-02-28T08:05:14.767Z,8.30
2023-02-28T08:08:01.580Z,7.90
2023-02-28T08:10:48.277Z,9.00
2023-02-28T08:13:34.790Z,7.80
2023-02-28T08:16:23.276Z,7.20
2023-02-28T08:19:10.080Z,8.00
2023-02-28T08:21:57.090Z,7.60
2023-02-28T08:24:44.709Z,7.40
2023-02-28T08:27:31.081Z,7.80
2023-02-28T08:30:17.629Z,7.10
2023-02-28T08:33:04.232Z,9.10
2023-02-28T08:35:54.902Z,8.20
2023-02-28T08:38:41.319Z,7.90
2023-02-28T08:41:28.362Z,9.00
2023-02-28T08:44:14.958Z,8.60
2023-02-28T08:47:01.966Z,7.80
2023-02-28T08:49:48.858Z,7.70
2023-02-28T08:52:35.363Z,7.80
2023-02-28T08:55:22.095Z,7.90
2023-02-28T08:58:08.656Z,8.20
2023-02-28T09:00:55.628Z,7.90
2023-02-28T09:03:43.644Z,8.80
2023-02-28T09:06:30.118Z,9.00
2023-02-28T09:09:17.131Z,8.20
2023-02-28T09:12:04.164Z,8.20
2023-02-28T09:14:50.590Z,8.90
2023-02-28T09:17:37.486Z,7.90
2023-02-28T09:20:24.546Z,8.50
2023-02-28T09:23:12.878Z,7.70
2023-02-28T09:26:07.992Z,11.80
2023-02-28T09:30:47.066Z,7.60
2023-02-28T09:33:35.323Z,7.90
2023-02-28T09:36:24.842Z,8.30
2023-02-28T09:39:13.621Z,9.40
2023-02-28T09:42:00.437Z,9.50
2023-02-28T09:44:53.900Z,8.70
2023-02-28T09:47:46.510Z,9.10
2023-02-28T09:50:51.742Z,8.30
2023-02-28T09:53:40.797Z,9.60
2023-02-28T09:57:06.707Z,10.30
2023-02-28T10:00:08.167Z,8.80
2023-02-28T10:03:33.521Z,10.40
2023-02-28T10:06:27.387Z,8.60
2023-02-28T10:09:23.623Z,8.80
2023-02-28T10:12:12.975Z,11.40
2023-02-28T10:15:01.691Z,10.80
2023-02-28T10:19:14.446Z,8.30
2023-02-28T10:22:18.914Z,9.80
2023-02-28T10:25:21.499Z,9.30
2023-02-28T10:28:16.577Z,8.80
2023-02-28T10:31:03.805Z,9.10
2023-02-28T10:33:50.875Z,10.40
2023-02-28T10:36:37.578Z,9.10
2023-02-28T10:39:39.391Z,12.20
2023-02-28T10:42:28.433Z,10.20
2023-02-28T10:45:17.555Z,11.70
2023-02-28T10:48:11.295Z,13.40
2023-02-28T10:50:58.924Z,12.50
2023-02-28T10:54:03.619Z,12.90
2023-02-28T10:57:19.515Z,11.20
2023-02-28T11:00:26.600Z,12.30
2023-02-28T11:03:32.898Z,10.70
2023-02-28T11:06:27.108Z,13.00
2023-02-28T11:09:31.892Z,10.30
2023-02-28T11:12:29.395Z,11.20
2023-02-28T11:15:21.803Z,10.40
2023-02-28T11:18:23.893Z,10.90
2023-02-28T11:21:16.859Z,13.40
2023-02-28T11:24:15.064Z,10.20
2023-02-28T11:27:01.619Z,12.90
2023-02-28T11:29:52.208Z,10.10
2023-02-28T11:32:49.962Z,13.10
2023-02-28T11:35:40.670Z,13.80
2023-02-28T11:38:28.868Z,12.30
2023-02-28T11:41:40.872Z,11.10
2023-02-28T11:44:44.538Z,16.20
2023-02-28T11:47:53.796Z,11.60
2023-02-28T11:50:49.275Z,11.20
2023-02-28T11:53:48.139Z,18.30
2023-02-28T11:56:43.573Z,11.50
2023-02-28T11:59:36.879Z,11.60
2023-02-28T12:02:32.534Z,12.40
2023-02-28T12:05:30.692Z,11.40
2023-02-28T12:08:28.043Z,10.80
2023-02-28T12:11:23.942Z,10.60
2023-02-28T12:14:10.415Z,11.20
2023-02-28T12:17:30.853Z,10.30
2023-02-28T12:20:44.448Z,10.30
2023-02-28T12:23:57.854Z,12.50
2023-02-28T12:26:47.671Z,13.00
2023-02-28T12:29:46.828Z,10.50
2023-02-28T12:32:38.023Z,13.80
2023-02-28T12:35:33.139Z,10.40
2023-02-28T12:38:28.281Z,10.50
2023-02-28T12:41:37.461Z,10.90
2023-02-28T12:44:42.217Z,10.50
2023-02-28T12:47:28.568Z,11.70
2023-02-28T12:50:16.084Z,13.10
2023-02-28T12:53:18.548Z,10.90
2023-02-28T12:56:21.252Z,12.20
2023-02-28T12:59:57.263Z,11.00
2023-02-28T13:03:08.379Z,12.10
2023-02-28T13:06:09.865Z,11.40
2023-02-28T13:09:05.579Z,12.40
2023-02-28T13:11:56.770Z,13.20
2023-02-28T13:14:43.818Z,13.20
2023-02-28T13:17:30.315Z,17.30
2023-02-28T13:20:38.285Z,12.20
2023-02-28T13:23:41.298Z,11.50
2023-02-28T13:26:36.860Z,18.20
2023-02-28T13:29:39.408Z,14.00
2023-02-28T13:32:27.645Z,11.20
2023-02-28T13:35:16.117Z,16.70
2023-02-28T13:38:34.579Z,11.60
2023-02-28T13:41:31.061Z,10.00
2023-02-28T13:44:28.087Z,11.80
2023-02-28T13:47:14.368Z,12.60
2023-02-28T13:50:27.520Z,11.80
2023-02-28T13:53:13.979Z,13.10
2023-02-28T13:56:32.196Z,13.00
2023-02-28T13:59:34.526Z,13.40
2023-02-28T14:02:56.203Z,13.20
2023-02-28T14:05:43.346Z,14.60
2023-02-28T14:08:30.245Z,11.60
2023-02-28T14:11:39.488Z,13.60
2023-02-28T14:14:35.828Z,13.40
2023-02-28T14:17:27.127Z,12.20
2023-02-28T14:20:17.552Z,14.00
2023-02-28T14:23:14.460Z,12.90
2023-02-28T14:26:20.265Z,11.20
2023-02-28T14:29:28.429Z,14.60
2023-02-28T14:32:28.365Z,13.90
2023-02-28T14:35:17.843Z,15.30
2023-02-28T14:38:08.315Z,13.90
2023-02-28T14:40:57.681Z,12.80
2023-02-28T14:44:00.224Z,13.20
2023-02-28T14:46:51.030Z,15.50
2023-02-28T14:49:43.827Z,14.50
2023-02-28T14:52:33.680Z,12.90
2023-02-28T14:55:24.492Z,12.00
2023-02-28T14:58:24.053Z,13.50
2023-02-28T15:01:11.608Z,12.90
2023-02-28T15:04:04.072Z,14.70
2023-02-28T15:07:09.319Z,11.90
2023-02-28T15:10:13.188Z,12.00
2023-02-28T15:13:14.282Z,12.10
2023-02-28T15:16:09.278Z,14.40
2023-02-28T15:18:59.294Z,14.70
2023-02-28T15:21:50.486Z,12.80
2023-02-28T15:24:45.394Z,11.60
2023-02-28T15:27:34.198Z,13.60
2023-02-28T15:30:26.307Z,13.80
2023-02-28T15:33:28.661Z,13.20
2023-02-28T15:36:18.603Z,13.60
2023-02-28T15:39:24.856Z,13.10
2023-02-28T15:42:13.672Z,15.10
2023-02-28T15:46:14.609Z,13.00
2023-02-28T15:49:01.349Z,14.50
2023-02-28T15:51:51.542Z,19.30
2023-02-28T15:54:38.796Z,16.10
2023-02-28T15:57:29.739Z,13.10
2023-02-28T16:00:22.332Z,13.60
2023-02-28T16:03:37.040Z,15.40
2023-02-28T16:06:37.509Z,12.10
2023-02-28T16:09:25.640Z,14.20
2023-02-28T16:12:14.622Z,15.70
2023-02-28T16:15:30.826Z,15.20
2023-02-28T16:18:51.384Z,12.90
2023-02-28T16:21:38.243Z,13.70
2023-02-28T16:24:29.891Z,14.20
2023-02-28T16:27:34.146Z,13.80
2023-02-28T16:30:23.965Z,16.40
2023-02-28T16:33:10.760Z,16.00
2023-02-28T16:35:57.987Z,16.10
2023-02-28T16:38:51.863Z,16.20
2023-02-28T16:41:42.950Z,17.30
2023-02-28T16:44:37.548Z,15.50
2023-02-28T16:47:28.863Z,17.10
2023-02-28T16:50:26.032Z,17.70
2023-02-28T16:53:14.648Z,16.40
2023-02-28T16:56:07.887Z,16.20
2023-02-28T16:59:00.212Z,16.40
2023-02-28T17:01:46.793Z,15.50
2023-02-28T17:04:33.202Z,19.90
2023-02-28T17:07:20.042Z,18.90
2023-02-28T17:10:16.365Z,18.40
2023-02-28T17:13:13.156Z,17.90
2023-02-28T17:16:01.952Z,18.20
2023-02-28T17:18:48.877Z,17.00
2023-02-28T17:21:38.204Z,18.40
2023-02-28T17:24:30.901Z,17.20
2023-02-28T17:27:18.988Z,17.60
2023-02-28T17:30:14.863Z,19.20
2023-02-28T17:33:02.822Z,19.90
2023-02-28T17:35:49.571Z,17.70
2023-02-28T17:38:39.494Z,18.70
2023-02-28T17:41:27.572Z,18.70
2023-02-28T17:44:13.969Z,18.00
2023-02-28T17:47:01.283Z,17.00
2023-02-28T17:49:48.323Z,18.10
2023-02-28T17:52:37.713Z,19.00
2023-02-28T17:55:24.365Z,20.40
2023-02-28T17:58:15.126Z,21.90
2023-02-28T18:01:01.600Z,21.80
2023-02-28T18:03:50.942Z,21.70
2023-02-28T18:06:47.408Z,26.20
2023-02-28T18:09:34.586Z,24.60
2023-02-28T18:12:21.650Z,25.70
2023-02-28T18:25:52.101Z,24.10
2023-02-28T18:28:46.043Z,27.10
2023-02-28T18:35:14.381Z,26.70
2023-02-28T18:50:27.867Z,22.40
2023-02-28T20:29:57.081Z,499.50
2023-02-28T20:58:10.070Z,47.40
2023-02-28T21:12:10.276Z,56.20
2023-02-28T21:26:18.135Z,41.80
2023-02-28T21:39:43.472Z,48.00
2023-02-28T21:42:43.293Z,44.60
2023-02-28T21:57:15.417Z,44.60
2023-02-28T22:00:17.132Z,48.10
2023-02-28T22:03:49.297Z,44.70
2023-02-28T22:07:48.516Z,46.50
2023-02-28T22:11:55.832Z,36.00
2023-02-28T22:15:54.841Z,37.60
2023-02-28T22:20:19.806Z,42.50
2023-02-28T22:23:33.153Z,42.80
2023-02-28T22:26:22.605Z,46.70
2023-02-28T22:29:17.577Z,43.80
2023-02-28T22:32:09.119Z,42.00
2023-02-28T22:34:56.502Z,41.80
2023-02-28T22:40:03.933Z,39.20
2023-02-28T22:44:02.024Z,41.60
2023-02-28T22:47:57.399Z,41.30
2023-02-28T22:50:44.627Z,43.90
2023-02-28T22:53:33.204Z,43.40
2023-02-28T22:56:21.408Z,46.10
2023-02-28T22:59:13.103Z,46.30
2023-02-28T23:01:59.809Z,59.50
2023-02-28T23:04:58.170Z,60.50
2023-02-28T23:09:02.575Z,59.40
2023-02-28T23:12:31.646Z,52.50
2023-02-28T23:16:38.981Z,52.00
2023-02-28T23:20:34.956Z,49.20
2023-02-28T23:24:37.257Z,49.70
2023-02-28T23:28:23.915Z,48.70
2023-02-28T23:31:46.622Z,48.80
2023-02-28T23:35:46.098Z,46.20
2023-02-28T23:39:44.637Z,45.70
2023-02-28T23:43:40.810Z,49.90
2023-02-28T23:47:56.172Z,54.70
2023-02-28T23:51:18.583Z,54.80
2023-02-28T23:55:17.379Z,49.30
2023-02-28T23:59:12.782Z,59.80
